Rechercher aéroport 
image banner adimage banner adimage banner ad
image banner ad

2PA6 - The Old Commonwealth Aerodrome

Situé à Shartlesville, United States

ICAO - 2PA6, IATA -

Données fournies par Airmate  

Information générale

Coordonnées: N40°29'28" W76°5'52"
Élévation : 540 feet MSL.
Variation magnétique : -11° East
Voir autres Aéroports à Pennsylvania

Données opérationnelles

Special qualification required
Heure actuelle UTC:
Heure actuelle locale:
METAR: KRDG 150654Z AUTO 00000KT 10SM FEW065 BKN100 18/17 A2978 RMK AO2 SLP086 T01780172
TAF: KRDG 150523Z 1506/1606 VRB03KT P6SM BKN080 TEMPO 1508/1512 2SM BR OVC015 FM151400 31008G16KT P6SM BKN050 FM152300 33004KT P6SM SCT050
Voir NOTAMs / SUP AIP / TFR affectant cet aéroport [VIEW]
Fréquences de communication: [VIEW]

Pistes:

Identifiant RWYQFULongueur (ft)Largeur (ft)SurfaceLDA (ft)
181050100GRASS
361050100GRASS

Coordonnées de l'aéroport

Adresse: Shartlesville United States

Vue satellite de 2PA6